sensor_id;sensor_type;location;lat;lon;timestamp;pressure;altitude;pressure_sealevel;temperature
70050;BMP180;57391;51.306;22.680;2023-06-10T00:01:19;99577.20;;;19.30
70050;BMP180;57391;51.306;22.680;2023-06-10T00:03:46;99573.60;;;19.30
70050;BMP180;57391;51.306;22.680;2023-06-10T00:06:13;99574.60;;;19.30
70050;BMP180;57391;51.306;22.680;2023-06-10T00:08:40;99570.60;;;19.30
70050;BMP180;57391;51.306;22.680;2023-06-10T00:11:08;99570.20;;;19.24
70050;BMP180;57391;51.306;22.680;2023-06-10T00:13:35;99574.20;;;19.26
70050;BMP180;57391;51.306;22.680;2023-06-10T00:16:02;99573.00;;;19.22
70050;BMP180;57391;51.306;22.680;2023-06-10T00:18:30;99571.80;;;19.22
70050;BMP180;57391;51.306;22.680;2023-06-10T00:20:58;99573.20;;;19.24
70050;BMP180;57391;51.306;22.680;2023-06-10T00:23:31;99570.80;;;19.30
70050;BMP180;57391;51.306;22.680;2023-06-10T00:25:58;99572.60;;;19.26
70050;BMP180;57391;51.306;22.680;2023-06-10T00:28:26;99578.00;;;19.20
70050;BMP180;57391;51.306;22.680;2023-06-10T00:30:53;99572.40;;;19.20
70050;BMP180;57391;51.306;22.680;2023-06-10T00:33:21;99573.20;;;19.10
70050;BMP180;57391;51.306;22.680;2023-06-10T00:35:48;99569.80;;;19.10
70050;BMP180;57391;51.306;22.680;2023-06-10T00:38:15;99567.60;;;19.10
70050;BMP180;57391;51.306;22.680;2023-06-10T00:40:43;99573.40;;;19.04
70050;BMP180;57391;51.306;22.680;2023-06-10T00:43:11;99573.40;;;19.00
70050;BMP180;57391;51.306;22.680;2023-06-10T00:45:38;99574.20;;;19.00
70050;BMP180;57391;51.306;22.680;2023-06-10T00:48:06;99584.60;;;19.00
70050;BMP180;57391;51.306;22.680;2023-06-10T00:50:34;99582.20;;;18.90
70050;BMP180;57391;51.306;22.680;2023-06-10T00:53:01;99580.40;;;18.80
70050;BMP180;57391;51.306;22.680;2023-06-10T00:55:28;99575.60;;;18.80
70050;BMP180;57391;51.306;22.680;2023-06-10T00:57:56;99574.80;;;18.70
70050;BMP180;57391;51.306;22.680;2023-06-10T01:00:23;99568.00;;;18.70
70050;BMP180;57391;51.306;22.680;2023-06-10T01:02:50;99564.40;;;18.70
70050;BMP180;57391;51.306;22.680;2023-06-10T01:05:20;99553.20;;;18.66
70050;BMP180;57391;51.306;22.680;2023-06-10T01:08:07;99555.40;;;18.60
70050;BMP180;57391;51.306;22.680;2023-06-10T01:11:04;99559.40;;;18.60
70050;BMP180;57391;51.306;22.680;2023-06-10T01:13:36;99569.40;;;18.60
70050;BMP180;57391;51.306;22.680;2023-06-10T01:16:05;99585.20;;;18.60
70050;BMP180;57391;51.306;22.680;2023-06-10T01:18:32;99589.00;;;18.50
70050;BMP180;57391;51.306;22.680;2023-06-10T01:20:59;99587.60;;;18.50
70050;BMP180;57391;51.306;22.680;2023-06-10T01:23:27;99593.00;;;18.42
70050;BMP180;57391;51.306;22.680;2023-06-10T01:26:02;99592.00;;;18.40
70050;BMP180;57391;51.306;22.680;2023-06-10T01:29:07;99602.80;;;18.38
70050;BMP180;57391;51.306;22.680;2023-06-10T01:32:15;99607.20;;;18.30
70050;BMP180;57391;51.306;22.680;2023-06-10T01:34:43;99609.60;;;18.30
70050;BMP180;57391;51.306;22.680;2023-06-10T01:37:18;99610.00;;;18.30
70050;BMP180;57391;51.306;22.680;2023-06-10T01:39:47;99609.20;;;18.30
70050;BMP180;57391;51.306;22.680;2023-06-10T01:42:15;99611.60;;;18.30
70050;BMP180;57391;51.306;22.680;2023-06-10T01:44:43;99614.60;;;18.30
70050;BMP180;57391;51.306;22.680;2023-06-10T01:47:10;99611.20;;;18.30
70050;BMP180;57391;51.306;22.680;2023-06-10T01:49:37;99614.80;;;18.30
70050;BMP180;57391;51.306;22.680;2023-06-10T01:52:05;99614.80;;;18.30
70050;BMP180;57391;51.306;22.680;2023-06-10T01:54:34;99610.80;;;18.22
70050;BMP180;57391;51.306;22.680;2023-06-10T01:57:04;99613.40;;;18.20
70050;BMP180;57391;51.306;22.680;2023-06-10T01:59:33;99611.00;;;18.20
70050;BMP180;57391;51.306;22.680;2023-06-10T02:02:00;99607.00;;;18.20
70050;BMP180;57391;51.306;22.680;2023-06-10T02:04:27;99611.00;;;18.20
70050;BMP180;57391;51.306;22.680;2023-06-10T02:06:54;99613.80;;;18.20
70050;BMP180;57391;51.306;22.680;2023-06-10T02:09:22;99615.60;;;18.20
70050;BMP180;57391;51.306;22.680;2023-06-10T02:11:50;99610.40;;;18.10
70050;BMP180;57391;51.306;22.680;2023-06-10T02:14:17;99617.40;;;18.10
70050;BMP180;57391;51.306;22.680;2023-06-10T02:16:44;99616.00;;;18.02
70050;BMP180;57391;51.306;22.680;2023-06-10T02:19:13;99614.40;;;18.00
70050;BMP180;57391;51.306;22.680;2023-06-10T02:21:41;99617.20;;;18.00
70050;BMP180;57391;51.306;22.680;2023-06-10T02:24:09;99619.60;;;18.00
70050;BMP180;57391;51.306;22.680;2023-06-10T02:26:36;99620.80;;;18.00
70050;BMP180;57391;51.306;22.680;2023-06-10T02:29:03;99626.40;;;18.00
70050;BMP180;57391;51.306;22.680;2023-06-10T02:31:30;99628.80;;;18.00
70050;BMP180;57391;51.306;22.680;2023-06-10T02:33:57;99627.00;;;18.00
70050;BMP180;57391;51.306;22.680;2023-06-10T02:36:25;99633.20;;;18.00
70050;BMP180;57391;51.306;22.680;2023-06-10T02:38:54;99631.80;;;17.94
70050;BMP180;57391;51.306;22.680;2023-06-10T02:41:22;99635.60;;;17.92
70050;BMP180;57391;51.306;22.680;2023-06-10T02:43:52;99636.20;;;17.90
70050;BMP180;57391;51.306;22.680;2023-06-10T02:46:19;99634.00;;;17.90
70050;BMP180;57391;51.306;22.680;2023-06-10T02:48:46;99638.20;;;17.90
70050;BMP180;57391;51.306;22.680;2023-06-10T02:51:16;99636.40;;;17.90
70050;BMP180;57391;51.306;22.680;2023-06-10T02:53:46;99639.80;;;17.90
70050;BMP180;57391;51.306;22.680;2023-06-10T02:56:17;99641.20;;;17.90
70050;BMP180;57391;51.306;22.680;2023-06-10T02:58:44;99646.40;;;17.82
70050;BMP180;57391;51.306;22.680;2023-06-10T03:01:12;99648.00;;;17.80
70050;BMP180;57391;51.306;22.680;2023-06-10T03:03:52;99652.20;;;17.80
70050;BMP180;57391;51.306;22.680;2023-06-10T03:06:19;99658.80;;;17.74
70050;BMP180;57391;51.306;22.680;2023-06-10T03:08:46;99656.60;;;17.70
70050;BMP180;57391;51.306;22.680;2023-06-10T03:11:16;99660.40;;;17.70
70050;BMP180;57391;51.306;22.680;2023-06-10T03:13:43;99667.20;;;17.70
70050;BMP180;57391;51.306;22.680;2023-06-10T03:16:12;99671.00;;;17.70
70050;BMP180;57391;51.306;22.680;2023-06-10T03:18:39;99670.40;;;17.70
70050;BMP180;57391;51.306;22.680;2023-06-10T03:21:08;99672.60;;;17.70
70050;BMP180;57391;51.306;22.680;2023-06-10T03:23:36;99672.60;;;17.70
70050;BMP180;57391;51.306;22.680;2023-06-10T03:26:04;99670.00;;;17.70
70050;BMP180;57391;51.306;22.680;2023-06-10T03:28:32;99670.00;;;17.70
70050;BMP180;57391;51.306;22.680;2023-06-10T03:30:59;99666.20;;;17.60
70050;BMP180;57391;51.306;22.680;2023-06-10T03:33:27;99666.40;;;17.60
70050;BMP180;57391;51.306;22.680;2023-06-10T03:35:54;99664.40;;;17.60
70050;BMP180;57391;51.306;22.680;2023-06-10T03:38:21;99665.20;;;17.60
70050;BMP180;57391;51.306;22.680;2023-06-10T03:40:49;99667.40;;;17.60
70050;BMP180;57391;51.306;22.680;2023-06-10T03:43:16;99662.60;;;17.60
70050;BMP180;57391;51.306;22.680;2023-06-10T03:45:44;99658.60;;;17.50
70050;BMP180;57391;51.306;22.680;2023-06-10T03:48:12;99655.40;;;17.50
70050;BMP180;57391;51.306;22.680;2023-06-10T03:50:46;99654.40;;;17.50
70050;BMP180;57391;51.306;22.680;2023-06-10T03:53:14;99653.80;;;17.50
70050;BMP180;57391;51.306;22.680;2023-06-10T03:55:43;99654.80;;;17.50
70050;BMP180;57391;51.306;22.680;2023-06-10T03:58:10;99651.40;;;17.50
70050;BMP180;57391;51.306;22.680;2023-06-10T04:00:40;99649.80;;;17.50
70050;BMP180;57391;51.306;22.680;2023-06-10T04:03:10;99653.00;;;17.50
70050;BMP180;57391;51.306;22.680;2023-06-10T04:05:43;99655.20;;;17.50
70050;BMP180;57391;51.306;22.680;2023-06-10T04:08:10;99654.60;;;17.50
70050;BMP180;57391;51.306;22.680;2023-06-10T04:10:37;99650.20;;;17.52
70050;BMP180;57391;51.306;22.680;2023-06-10T04:13:04;99652.40;;;17.58
70050;BMP180;57391;51.306;22.680;2023-06-10T04:15:36;99655.60;;;17.60
70050;BMP180;57391;51.306;22.680;2023-06-10T04:18:06;99659.60;;;17.60
70050;BMP180;57391;51.306;22.680;2023-06-10T04:20:33;99657.60;;;17.60
70050;BMP180;57391;51.306;22.680;2023-06-10T04:23:01;99657.00;;;17.60
70050;BMP180;57391;51.306;22.680;2023-06-10T04:25:28;99656.20;;;17.56
70050;BMP180;57391;51.306;22.680;2023-06-10T04:27:56;99658.60;;;17.50
70050;BMP180;57391;51.306;22.680;2023-06-10T04:30:23;99663.40;;;17.50
70050;BMP180;57391;51.306;22.680;2023-06-10T04:32:51;99665.20;;;17.50
70050;BMP180;57391;51.306;22.680;2023-06-10T04:35:19;99666.80;;;17.40
70050;BMP180;57391;51.306;22.680;2023-06-10T04:37:46;99670.20;;;17.36
70050;BMP180;57391;51.306;22.680;2023-06-10T04:40:14;99677.60;;;17.36
70050;BMP180;57391;51.306;22.680;2023-06-10T04:42:43;99669.60;;;17.36
70050;BMP180;57391;51.306;22.680;2023-06-10T04:45:11;99670.80;;;17.32
70050;BMP180;57391;51.306;22.680;2023-06-10T04:47:38;99672.80;;;17.32
70050;BMP180;57391;51.306;22.680;2023-06-10T04:50:06;99668.80;;;17.30
70050;BMP180;57391;51.306;22.680;2023-06-10T04:52:33;99669.60;;;17.30
70050;BMP180;57391;51.306;22.680;2023-06-10T04:55:01;99667.60;;;17.30
70050;BMP180;57391;51.306;22.680;2023-06-10T04:57:28;99666.60;;;17.30
70050;BMP180;57391;51.306;22.680;2023-06-10T04:59:55;99669.00;;;17.20
70050;BMP180;57391;51.306;22.680;2023-06-10T05:02:23;99666.60;;;17.20
70050;BMP180;57391;51.306;22.680;2023-06-10T05:04:50;99664.60;;;17.20
70050;BMP180;57391;51.306;22.680;2023-06-10T05:07:17;99668.00;;;17.20
70050;BMP180;57391;51.306;22.680;2023-06-10T05:09:44;99663.40;;;17.20
70050;BMP180;57391;51.306;22.680;2023-06-10T05:12:12;99664.20;;;17.20
70050;BMP180;57391;51.306;22.680;2023-06-10T05:14:39;99670.40;;;17.20
70050;BMP180;57391;51.306;22.680;2023-06-10T05:17:06;99676.20;;;17.20
70050;BMP180;57391;51.306;22.680;2023-06-10T05:19:33;99681.00;;;17.20
70050;BMP180;57391;51.306;22.680;2023-06-10T05:22:02;99681.80;;;17.20
70050;BMP180;57391;51.306;22.680;2023-06-10T05:24:29;99683.60;;;17.20
70050;BMP180;57391;51.306;22.680;2023-06-10T05:26:56;99695.00;;;17.20
70050;BMP180;57391;51.306;22.680;2023-06-10T05:29:23;99695.20;;;17.12
70050;BMP180;57391;51.306;22.680;2023-06-10T05:31:50;99697.40;;;17.10
70050;BMP180;57391;51.306;22.680;2023-06-10T05:34:18;99698.00;;;17.06
70050;BMP180;57391;51.306;22.680;2023-06-10T05:36:45;99701.60;;;17.00
70050;BMP180;57391;51.306;22.680;2023-06-10T05:39:13;99711.60;;;17.00
70050;BMP180;57391;51.306;22.680;2023-06-10T05:41:40;99712.00;;;17.00
70050;BMP180;57391;51.306;22.680;2023-06-10T05:44:07;99710.80;;;17.00
70050;BMP180;57391;51.306;22.680;2023-06-10T05:46:34;99710.40;;;17.00
70050;BMP180;57391;51.306;22.680;2023-06-10T05:49:02;99711.60;;;17.00
70050;BMP180;57391;51.306;22.680;2023-06-10T05:51:30;99716.00;;;17.00
70050;BMP180;57391;51.306;22.680;2023-06-10T05:53:57;99708.60;;;16.96
70050;BMP180;57391;51.306;22.680;2023-06-10T05:56:24;99711.00;;;16.90
70050;BMP180;57391;51.306;22.680;2023-06-10T05:58:53;99712.40;;;16.94
70050;BMP180;57391;51.306;22.680;2023-06-10T06:01:20;99714.40;;;16.92
70050;BMP180;57391;51.306;22.680;2023-06-10T06:03:47;99714.80;;;17.00
70050;BMP180;57391;51.306;22.680;2023-06-10T06:06:15;99715.40;;;17.00
70050;BMP180;57391;51.306;22.680;2023-06-10T06:08:42;99715.80;;;17.00
70050;BMP180;57391;51.306;22.680;2023-06-10T06:11:09;99719.80;;;17.10
70050;BMP180;57391;51.306;22.680;2023-06-10T06:13:37;99722.00;;;17.10
70050;BMP180;57391;51.306;22.680;2023-06-10T06:16:04;99722.40;;;17.20
70050;BMP180;57391;51.306;22.680;2023-06-10T06:18:31;99723.60;;;17.20
70050;BMP180;57391;51.306;22.680;2023-06-10T06:21:01;99725.00;;;17.30
70050;BMP180;57391;51.306;22.680;2023-06-10T06:23:28;99720.80;;;17.30
70050;BMP180;57391;51.306;22.680;2023-06-10T06:25:55;99720.40;;;17.36
70050;BMP180;57391;51.306;22.680;2023-06-10T06:28:22;99720.60;;;17.40
70050;BMP180;57391;51.306;22.680;2023-06-10T06:30:56;99724.00;;;17.50
70050;BMP180;57391;51.306;22.680;2023-06-10T06:33:23;99727.40;;;17.50
70050;BMP180;57391;51.306;22.680;2023-06-10T06:35:50;99724.80;;;17.60
70050;BMP180;57391;51.306;22.680;2023-06-10T06:38:18;99729.40;;;17.60
70050;BMP180;57391;51.306;22.680;2023-06-10T06:40:45;99732.40;;;17.70
70050;BMP180;57391;51.306;22.680;2023-06-10T06:43:12;99734.40;;;17.80
70050;BMP180;57391;51.306;22.680;2023-06-10T06:45:59;99732.40;;;17.90
70050;BMP180;57391;51.306;22.680;2023-06-10T06:48:27;99739.20;;;17.90
70050;BMP180;57391;51.306;22.680;2023-06-10T06:50:54;99742.60;;;18.00
70050;BMP180;57391;51.306;22.680;2023-06-10T06:53:23;99743.80;;;18.00
70050;BMP180;57391;51.306;22.680;2023-06-10T06:55:50;99747.00;;;18.00
70050;BMP180;57391;51.306;22.680;2023-06-10T06:58:17;99747.40;;;18.06
70050;BMP180;57391;51.306;22.680;2023-06-10T07:00:44;99750.80;;;18.10
70050;BMP180;57391;51.306;22.680;2023-06-10T07:03:11;99751.40;;;18.16
70050;BMP180;57391;51.306;22.680;2023-06-10T07:05:39;99756.40;;;18.20
70050;BMP180;57391;51.306;22.680;2023-06-10T07:08:07;99762.20;;;18.26
70050;BMP180;57391;51.306;22.680;2023-06-10T07:10:35;99762.00;;;18.30
70050;BMP180;57391;51.306;22.680;2023-06-10T07:16:02;99771.20;;;18.28
70050;BMP180;57391;51.306;22.680;2023-06-10T07:18:29;99770.00;;;18.36
70050;BMP180;57391;51.306;22.680;2023-06-10T07:20:56;99771.40;;;18.40
70050;BMP180;57391;51.306;22.680;2023-06-10T07:23:23;99769.60;;;18.40
70050;BMP180;57391;51.306;22.680;2023-06-10T07:25:50;99769.80;;;18.40
70050;BMP180;57391;51.306;22.680;2023-06-10T07:28:18;99768.80;;;18.40
70050;BMP180;57391;51.306;22.680;2023-06-10T07:30:45;99770.40;;;18.40
70050;BMP180;57391;51.306;22.680;2023-06-10T07:33:12;99774.20;;;18.40
70050;BMP180;57391;51.306;22.680;2023-06-10T07:35:42;99778.80;;;18.48
70050;BMP180;57391;51.306;22.680;2023-06-10T07:38:11;99776.40;;;18.42
70050;BMP180;57391;51.306;22.680;2023-06-10T07:40:39;99776.60;;;18.48
70050;BMP180;57391;51.306;22.680;2023-06-10T07:43:06;99779.80;;;18.50
70050;BMP180;57391;51.306;22.680;2023-06-10T07:45:33;99780.40;;;18.50
70050;BMP180;57391;51.306;22.680;2023-06-10T07:48:01;99789.20;;;18.50
70050;BMP180;57391;51.306;22.680;2023-06-10T07:50:28;99790.20;;;18.50
70050;BMP180;57391;51.306;22.680;2023-06-10T07:52:56;99791.20;;;18.50
70050;BMP180;57391;51.306;22.680;2023-06-10T07:55:23;99794.40;;;18.50
70050;BMP180;57391;51.306;22.680;2023-06-10T07:57:53;99794.20;;;18.50
70050;BMP180;57391;51.306;22.680;2023-06-10T08:00:21;99799.20;;;18.50
70050;BMP180;57391;51.306;22.680;2023-06-10T08:02:48;99792.40;;;18.40
70050;BMP180;57391;51.306;22.680;2023-06-10T08:05:16;99800.40;;;18.40
70050;BMP180;57391;51.306;22.680;2023-06-10T08:07:45;99800.40;;;18.40
70050;BMP180;57391;51.306;22.680;2023-06-10T08:10:12;99800.60;;;18.40
70050;BMP180;57391;51.306;22.680;2023-06-10T08:12:39;99806.00;;;18.40
70050;BMP180;57391;51.306;22.680;2023-06-10T08:15:07;99807.60;;;18.40
70050;BMP180;57391;51.306;22.680;2023-06-10T08:17:34;99808.60;;;18.36
70050;BMP180;57391;51.306;22.680;2023-06-10T08:20:01;99810.80;;;18.40
70050;BMP180;57391;51.306;22.680;2023-06-10T08:22:29;99813.00;;;18.40
70050;BMP180;57391;51.306;22.680;2023-06-10T08:24:57;99821.00;;;18.30
70050;BMP180;57391;51.306;22.680;2023-06-10T08:27:24;99824.40;;;18.30
70050;BMP180;57391;51.306;22.680;2023-06-10T08:29:52;99830.00;;;18.30
70050;BMP180;57391;51.306;22.680;2023-06-10T08:32:19;99825.80;;;18.30
70050;BMP180;57391;51.306;22.680;2023-06-10T08:34:46;99828.20;;;18.30
70050;BMP180;57391;51.306;22.680;2023-06-10T08:37:14;99829.00;;;18.30
70050;BMP180;57391;51.306;22.680;2023-06-10T08:39:41;99828.40;;;18.30
70050;BMP180;57391;51.306;22.680;2023-06-10T08:42:23;99828.60;;;18.30
70050;BMP180;57391;51.306;22.680;2023-06-10T08:44:56;99827.60;;;18.30
70050;BMP180;57391;51.306;22.680;2023-06-10T08:47:25;99829.40;;;18.30
70050;BMP180;57391;51.306;22.680;2023-06-10T08:49:53;99830.80;;;18.26
70050;BMP180;57391;51.306;22.680;2023-06-10T08:52:26;99829.40;;;18.40
70050;BMP180;57391;51.306;22.680;2023-06-10T08:55:04;99829.60;;;18.60
70050;BMP180;57391;51.306;22.680;2023-06-10T08:57:31;99830.40;;;18.70
70050;BMP180;57391;51.306;22.680;2023-06-10T08:59:59;99830.20;;;18.90
70050;BMP180;57391;51.306;22.680;2023-06-10T09:02:27;99832.40;;;19.00
70050;BMP180;57391;51.306;22.680;2023-06-10T09:04:59;99830.00;;;19.16
70050;BMP180;57391;51.306;22.680;2023-06-10T09:07:30;99832.40;;;19.40
70050;BMP180;57391;51.306;22.680;2023-06-10T09:10:04;99836.80;;;19.50
70050;BMP180;57391;51.306;22.680;2023-06-10T09:12:34;99832.80;;;19.50
70050;BMP180;57391;51.306;22.680;2023-06-10T09:15:02;99827.60;;;19.60
70050;BMP180;57391;51.306;22.680;2023-06-10T09:17:31;99829.00;;;19.62
70050;BMP180;57391;51.306;22.680;2023-06-10T09:20:00;99821.60;;;19.80
70050;BMP180;57391;51.306;22.680;2023-06-10T09:22:30;99830.00;;;19.90
70050;BMP180;57391;51.306;22.680;2023-06-10T09:25:13;99824.20;;;19.80
70050;BMP180;57391;51.306;22.680;2023-06-10T09:27:50;99825.80;;;19.60
70050;BMP180;57391;51.306;22.680;2023-06-10T09:30:31;99822.40;;;19.60
70050;BMP180;57391;51.306;22.680;2023-06-10T09:33:11;99824.40;;;19.50
70050;BMP180;57391;51.306;22.680;2023-06-10T09:35:49;99821.40;;;19.40
70050;BMP180;57391;51.306;22.680;2023-06-10T09:38:21;99823.00;;;19.40
70050;BMP180;57391;51.306;22.680;2023-06-10T09:40:51;99827.20;;;19.36
70050;BMP180;57391;51.306;22.680;2023-06-10T09:43:20;99828.00;;;19.30
70050;BMP180;57391;51.306;22.680;2023-06-10T09:45:51;99830.00;;;19.20
70050;BMP180;57391;51.306;22.680;2023-06-10T09:48:22;99837.80;;;19.20
70050;BMP180;57391;51.306;22.680;2023-06-10T09:50:50;99840.00;;;19.20
70050;BMP180;57391;51.306;22.680;2023-06-10T09:53:17;99844.60;;;19.30
70050;BMP180;57391;51.306;22.680;2023-06-10T09:55:45;99842.60;;;19.44
70050;BMP180;57391;51.306;22.680;2023-06-10T09:58:14;99839.60;;;19.60
70050;BMP180;57391;51.306;22.680;2023-06-10T10:00:41;99840.00;;;19.74
70050;BMP180;57391;51.306;22.680;2023-06-10T10:03:08;99838.00;;;19.80
70050;BMP180;57391;51.306;22.680;2023-06-10T10:05:35;99836.00;;;19.96
70050;BMP180;57391;51.306;22.680;2023-06-10T10:08:03;99838.60;;;20.00
70050;BMP180;57391;51.306;22.680;2023-06-10T10:10:30;99840.00;;;20.00
70050;BMP180;57391;51.306;22.680;2023-06-10T10:12:59;99840.80;;;19.90
70050;BMP180;57391;51.306;22.680;2023-06-10T10:15:31;99845.20;;;19.76
70050;BMP180;57391;51.306;22.680;2023-06-10T10:18:11;99841.00;;;19.60
70050;BMP180;57391;51.306;22.680;2023-06-10T10:20:47;99843.40;;;19.50
70050;BMP180;57391;51.306;22.680;2023-06-10T10:23:26;99843.40;;;19.50
70050;BMP180;57391;51.306;22.680;2023-06-10T10:26:09;99839.00;;;19.50
70050;BMP180;57391;51.306;22.680;2023-06-10T10:29:19;99843.00;;;19.50
70050;BMP180;57391;51.306;22.680;2023-06-10T10:31:51;99849.80;;;19.50
70050;BMP180;57391;51.306;22.680;2023-06-10T10:34:37;99848.80;;;19.50
70050;BMP180;57391;51.306;22.680;2023-06-10T10:37:08;99849.20;;;19.50
70050;BMP180;57391;51.306;22.680;2023-06-10T10:39:36;99847.60;;;19.50
70050;BMP180;57391;51.306;22.680;2023-06-10T10:42:05;99849.00;;;19.60
70050;BMP180;57391;51.306;22.680;2023-06-10T10:44:38;99856.80;;;19.60
70050;BMP180;57391;51.306;22.680;2023-06-10T10:47:08;99853.60;;;19.60
70050;BMP180;57391;51.306;22.680;2023-06-10T10:49:38;99856.00;;;19.60
70050;BMP180;57391;51.306;22.680;2023-06-10T10:52:11;99861.20;;;19.60
70050;BMP180;57391;51.306;22.680;2023-06-10T10:54:45;99867.20;;;19.60
70050;BMP180;57391;51.306;22.680;2023-06-10T10:57:24;99861.60;;;19.60
70050;BMP180;57391;51.306;22.680;2023-06-10T10:59:55;99861.60;;;19.60
70050;BMP180;57391;51.306;22.680;2023-06-10T11:02:43;99866.20;;;19.60
70050;BMP180;57391;51.306;22.680;2023-06-10T11:05:16;99861.00;;;19.60
70050;BMP180;57391;51.306;22.680;2023-06-10T11:07:55;99859.00;;;19.70
70050;BMP180;57391;51.306;22.680;2023-06-10T11:10:37;99858.00;;;19.80
70050;BMP180;57391;51.306;22.680;2023-06-10T11:13:15;99853.60;;;19.80
70050;BMP180;57391;51.306;22.680;2023-06-10T11:15:48;99854.60;;;19.90
70050;BMP180;57391;51.306;22.680;2023-06-10T11:18:24;99857.20;;;19.90
70050;BMP180;57391;51.306;22.680;2023-06-10T11:20:58;99852.20;;;19.90
70050;BMP180;57391;51.306;22.680;2023-06-10T11:31:33;99857.20;;;20.20
70050;BMP180;57391;51.306;22.680;2023-06-10T11:34:04;99856.20;;;20.30
70050;BMP180;57391;51.306;22.680;2023-06-10T11:36:36;99855.20;;;20.40
70050;BMP180;57391;51.306;22.680;2023-06-10T11:39:06;99853.80;;;20.40
70050;BMP180;57391;51.306;22.680;2023-06-10T11:41:36;99850.00;;;20.58
70050;BMP180;57391;51.306;22.680;2023-06-10T11:44:09;99862.00;;;20.64
70050;BMP180;57391;51.306;22.680;2023-06-10T12:51:42;99804.00;;;22.08
70050;BMP180;57391;51.306;22.680;2023-06-10T12:54:09;99805.60;;;22.10
70050;BMP180;57391;51.306;22.680;2023-06-10T12:56:35;99803.80;;;22.10
70050;BMP180;57391;51.306;22.680;2023-06-10T12:59:02;99807.60;;;22.20
70050;BMP180;57391;51.306;22.680;2023-06-10T13:01:29;99804.00;;;22.24
70050;BMP180;57391;51.306;22.680;2023-06-10T13:03:58;99803.00;;;22.32
70050;BMP180;57391;51.306;22.680;2023-06-10T13:06:25;99802.00;;;22.40
70050;BMP180;57391;51.306;22.680;2023-06-10T13:08:51;99793.00;;;22.50
70050;BMP180;57391;51.306;22.680;2023-06-10T13:11:18;99801.20;;;22.60
70050;BMP180;57391;51.306;22.680;2023-06-10T13:13:44;99797.40;;;22.58
70050;BMP180;57391;51.306;22.680;2023-06-10T13:16:12;99787.40;;;22.62
70050;BMP180;57391;51.306;22.680;2023-06-10T13:18:38;99779.60;;;22.70
70050;BMP180;57391;51.306;22.680;2023-06-10T13:21:05;99780.80;;;22.74
70050;BMP180;57391;51.306;22.680;2023-06-10T13:23:32;99781.20;;;22.80
70050;BMP180;57391;51.306;22.680;2023-06-10T13:25:58;99773.00;;;22.90
70050;BMP180;57391;51.306;22.680;2023-06-10T13:28:25;99770.20;;;22.90
70050;BMP180;57391;51.306;22.680;2023-06-10T13:30:51;99765.60;;;22.92
70050;BMP180;57391;51.306;22.680;2023-06-10T13:33:17;99773.20;;;23.00
70050;BMP180;57391;51.306;22.680;2023-06-10T13:35:44;99773.80;;;23.10
70050;BMP180;57391;51.306;22.680;2023-06-10T13:38:10;99776.80;;;23.20
70050;BMP180;57391;51.306;22.680;2023-06-10T13:40:36;99777.20;;;23.30
70050;BMP180;57391;51.306;22.680;2023-06-10T13:43:03;99771.40;;;23.40
70050;BMP180;57391;51.306;22.680;2023-06-10T13:45:29;99776.40;;;23.46
70050;BMP180;57391;51.306;22.680;2023-06-10T13:47:55;99774.40;;;23.50
70050;BMP180;57391;51.306;22.680;2023-06-10T13:50:21;99781.60;;;23.50
70050;BMP180;57391;51.306;22.680;2023-06-10T13:52:48;99780.20;;;23.44
70050;BMP180;57391;51.306;22.680;2023-06-10T13:55:14;99775.80;;;23.40
70050;BMP180;57391;51.306;22.680;2023-06-10T13:57:41;99780.40;;;23.40
70050;BMP180;57391;51.306;22.680;2023-06-10T14:00:09;99777.60;;;23.40
70050;BMP180;57391;51.306;22.680;2023-06-10T14:02:37;99784.40;;;23.40
70050;BMP180;57391;51.306;22.680;2023-06-10T14:05:04;99784.80;;;23.40
70050;BMP180;57391;51.306;22.680;2023-06-10T14:07:31;99784.40;;;23.40
70050;BMP180;57391;51.306;22.680;2023-06-10T14:09:57;99786.60;;;23.40
70050;BMP180;57391;51.306;22.680;2023-06-10T14:12:24;99792.20;;;23.40
70050;BMP180;57391;51.306;22.680;2023-06-10T14:14:51;99787.20;;;23.30
70050;BMP180;57391;51.306;22.680;2023-06-10T14:17:17;99782.60;;;23.26
70050;BMP180;57391;51.306;22.680;2023-06-10T14:19:44;99785.60;;;23.20
70050;BMP180;57391;51.306;22.680;2023-06-10T14:22:10;99787.20;;;23.20
70050;BMP180;57391;51.306;22.680;2023-06-10T14:24:36;99791.40;;;23.20
70050;BMP180;57391;51.306;22.680;2023-06-10T14:27:03;99794.40;;;23.10
70050;BMP180;57391;51.306;22.680;2023-06-10T14:29:30;99791.00;;;23.18
70050;BMP180;57391;51.306;22.680;2023-06-10T14:31:57;99795.20;;;23.20
70050;BMP180;57391;51.306;22.680;2023-06-10T14:34:23;99792.40;;;23.20
70050;BMP180;57391;51.306;22.680;2023-06-10T14:36:55;99791.60;;;23.18
70050;BMP180;57391;51.306;22.680;2023-06-10T14:39:21;99790.40;;;23.10
70050;BMP180;57391;51.306;22.680;2023-06-10T14:41:47;99787.40;;;23.10
70050;BMP180;57391;51.306;22.680;2023-06-10T14:44:14;99786.00;;;23.00
70050;BMP180;57391;51.306;22.680;2023-06-10T14:46:40;99786.40;;;23.06
70050;BMP180;57391;51.306;22.680;2023-06-10T14:49:06;99788.80;;;23.10
70050;BMP180;57391;51.306;22.680;2023-06-10T14:51:32;99790.80;;;23.18
70050;BMP180;57391;51.306;22.680;2023-06-10T14:53:59;99784.40;;;23.20
70050;BMP180;57391;51.306;22.680;2023-06-10T14:56:25;99782.20;;;23.20
70050;BMP180;57391;51.306;22.680;2023-06-10T14:58:51;99782.20;;;23.20
70050;BMP180;57391;51.306;22.680;2023-06-10T15:01:18;99786.80;;;23.20
70050;BMP180;57391;51.306;22.680;2023-06-10T15:03:44;99792.40;;;23.20
70050;BMP180;57391;51.306;22.680;2023-06-10T15:06:10;99795.40;;;23.14
70050;BMP180;57391;51.306;22.680;2023-06-10T15:08:37;99792.40;;;23.00
70050;BMP180;57391;51.306;22.680;2023-06-10T15:11:03;99799.40;;;22.90
70050;BMP180;57391;51.306;22.680;2023-06-10T15:13:29;99806.80;;;22.80
70050;BMP180;57391;51.306;22.680;2023-06-10T15:15:55;99804.60;;;22.60
70050;BMP180;57391;51.306;22.680;2023-06-10T15:18:21;99808.40;;;22.38
70050;BMP180;57391;51.306;22.680;2023-06-10T15:20:48;99807.80;;;22.18
70050;BMP180;57391;51.306;22.680;2023-06-10T15:23:14;99800.80;;;22.00